Terminal Aerodrome Forecast
Issued by NWS Tallahassee, FL

Home | Current Version | Previous Version | Text Only | Print | Product List | Glossary On
Versions: 1 2 3 4 5 6 7 8 9 10 11 12 13 14 15 16 17 18 19 20 21
000
FTUS42 KTAE 221700 RRA
TAFTLH
TAF
KTLH 221741Z 2218/2318 VRB05KT P6SM SCT040 BKN070
     FM222000 18006KT P6SM SCT050 BKN250
     FM231500 24005KT P6SM SCT250=

USA.gov is the U.S. government's official web portal to all federal, state and local government web resources and services.